sensor_id;sensor_type;location;lat;lon;timestamp;P1;durP1;ratioP1;P2;durP2;ratioP2
60344;SDS011;46188;52.324;8.032;2022-12-29T00:01:34;5.55;;;4.40;;
60344;SDS011;46188;52.324;8.032;2022-12-29T00:03:59;4.88;;;4.38;;
60344;SDS011;46188;52.324;8.032;2022-12-29T00:06:25;5.00;;;4.50;;
60344;SDS011;46188;52.324;8.032;2022-12-29T00:08:51;5.93;;;4.50;;
60344;SDS011;46188;52.324;8.032;2022-12-29T00:11:24;8.40;;;4.57;;
60344;SDS011;46188;52.324;8.032;2022-12-29T00:13:51;5.28;;;4.53;;
60344;SDS011;46188;52.324;8.032;2022-12-29T00:16:36;5.32;;;4.60;;
60344;SDS011;46188;52.324;8.032;2022-12-29T00:19:03;6.38;;;4.35;;
60344;SDS011;46188;52.324;8.032;2022-12-29T00:21:29;6.53;;;4.55;;
60344;SDS011;46188;52.324;8.032;2022-12-29T00:24:15;4.70;;;4.20;;
60344;SDS011;46188;52.324;8.032;2022-12-29T00:26:57;5.28;;;4.38;;
60344;SDS011;46188;52.324;8.032;2022-12-29T00:29:52;5.28;;;4.03;;
60344;SDS011;46188;52.324;8.032;2022-12-29T00:32:36;5.25;;;4.45;;
60344;SDS011;46188;52.324;8.032;2022-12-29T00:35:25;4.68;;;4.28;;
60344;SDS011;46188;52.324;8.032;2022-12-29T00:37:54;4.45;;;3.80;;
60344;SDS011;46188;52.324;8.032;2022-12-29T00:40:40;4.50;;;3.97;;
60344;SDS011;46188;52.324;8.032;2022-12-29T00:46:08;4.85;;;3.45;;
60344;SDS011;46188;52.324;8.032;2022-12-29T00:48:34;4.68;;;4.00;;
60344;SDS011;46188;52.324;8.032;2022-12-29T00:51:18;3.97;;;3.58;;
60344;SDS011;46188;52.324;8.032;2022-12-29T00:53:43;4.45;;;3.65;;
60344;SDS011;46188;52.324;8.032;2022-12-29T00:56:09;3.78;;;3.30;;
60344;SDS011;46188;52.324;8.032;2022-12-29T00:58:34;4.55;;;3.90;;
60344;SDS011;46188;52.324;8.032;2022-12-29T01:01:04;4.03;;;3.63;;
60344;SDS011;46188;52.324;8.032;2022-12-29T01:03:33;4.90;;;3.33;;
60344;SDS011;46188;52.324;8.032;2022-12-29T01:06:01;4.43;;;3.47;;
60344;SDS011;46188;52.324;8.032;2022-12-29T01:08:28;4.05;;;3.42;;
60344;SDS011;46188;52.324;8.032;2022-12-29T01:10:58;5.07;;;3.10;;
60344;SDS011;46188;52.324;8.032;2022-12-29T01:13:28;4.40;;;3.47;;
60344;SDS011;46188;52.324;8.032;2022-12-29T01:15:53;4.47;;;3.38;;
60344;SDS011;46188;52.324;8.032;2022-12-29T01:18:19;3.38;;;2.85;;
60344;SDS011;46188;52.324;8.032;2022-12-29T01:20:45;3.47;;;2.80;;
60344;SDS011;46188;52.324;8.032;2022-12-29T01:23:11;3.97;;;2.92;;
60344;SDS011;46188;52.324;8.032;2022-12-29T01:25:36;3.15;;;2.83;;
60344;SDS011;46188;52.324;8.032;2022-12-29T01:28:02;6.85;;;2.97;;
60344;SDS011;46188;52.324;8.032;2022-12-29T01:30:28;3.58;;;2.83;;
60344;SDS011;46188;52.324;8.032;2022-12-29T01:32:53;7.35;;;2.80;;
60344;SDS011;46188;52.324;8.032;2022-12-29T01:35:18;2.83;;;2.30;;
60344;SDS011;46188;52.324;8.032;2022-12-29T01:37:44;2.63;;;2.10;;
60344;SDS011;46188;52.324;8.032;2022-12-29T01:40:10;3.28;;;2.20;;
60344;SDS011;46188;52.324;8.032;2022-12-29T01:42:35;3.13;;;2.70;;
60344;SDS011;46188;52.324;8.032;2022-12-29T01:45:02;3.15;;;2.53;;
60344;SDS011;46188;52.324;8.032;2022-12-29T01:47:41;3.63;;;2.42;;
60344;SDS011;46188;52.324;8.032;2022-12-29T01:50:20;3.58;;;2.63;;
60344;SDS011;46188;52.324;8.032;2022-12-29T01:53:11;2.80;;;2.30;;
60344;SDS011;46188;52.324;8.032;2022-12-29T01:55:45;2.28;;;1.88;;
60344;SDS011;46188;52.324;8.032;2022-12-29T01:58:15;2.75;;;2.17;;
60344;SDS011;46188;52.324;8.032;2022-12-29T02:00:45;3.03;;;2.40;;
60344;SDS011;46188;52.324;8.032;2022-12-29T02:03:10;3.58;;;2.67;;
60344;SDS011;46188;52.324;8.032;2022-12-29T02:05:56;4.95;;;2.80;;
60344;SDS011;46188;52.324;8.032;2022-12-29T02:08:28;3.10;;;2.65;;
60344;SDS011;46188;52.324;8.032;2022-12-29T02:10:58;3.15;;;2.75;;
60344;SDS011;46188;52.324;8.032;2022-12-29T02:13:26;3.35;;;3.05;;
60344;SDS011;46188;52.324;8.032;2022-12-29T02:26:41;4.68;;;3.53;;
60344;SDS011;46188;52.324;8.032;2022-12-29T02:32:05;5.80;;;3.80;;
60344;SDS011;46188;52.324;8.032;2022-12-29T02:34:46;4.43;;;3.58;;
60344;SDS011;46188;52.324;8.032;2022-12-29T02:40:06;3.55;;;3.25;;
60344;SDS011;46188;52.324;8.032;2022-12-29T02:45:43;3.88;;;3.40;;
60344;SDS011;46188;52.324;8.032;2022-12-29T02:48:20;3.42;;;3.13;;
60344;SDS011;46188;52.324;8.032;2022-12-29T02:50:55;3.25;;;2.90;;
60344;SDS011;46188;52.324;8.032;2022-12-29T02:53:25;4.28;;;3.25;;
60344;SDS011;46188;52.324;8.032;2022-12-29T02:56:11;5.15;;;3.22;;
60344;SDS011;46188;52.324;8.032;2022-12-29T02:58:37;5.28;;;3.50;;
60344;SDS011;46188;52.324;8.032;2022-12-29T03:06:45;3.60;;;2.97;;
60344;SDS011;46188;52.324;8.032;2022-12-29T03:09:26;2.75;;;2.40;;
60344;SDS011;46188;52.324;8.032;2022-12-29T03:12:07;2.90;;;2.38;;
60344;SDS011;46188;52.324;8.032;2022-12-29T03:15:10;2.90;;;2.30;;
60344;SDS011;46188;52.324;8.032;2022-12-29T03:18:04;2.60;;;2.15;;
60344;SDS011;46188;52.324;8.032;2022-12-29T03:20:46;2.45;;;2.00;;
60344;SDS011;46188;52.324;8.032;2022-12-29T03:23:17;3.25;;;1.80;;
60344;SDS011;46188;52.324;8.032;2022-12-29T03:25:46;3.75;;;1.77;;
60344;SDS011;46188;52.324;8.032;2022-12-29T03:28:15;2.00;;;1.45;;
60344;SDS011;46188;52.324;8.032;2022-12-29T03:30:47;1.90;;;1.52;;
60344;SDS011;46188;52.324;8.032;2022-12-29T03:33:17;2.05;;;1.63;;
60344;SDS011;46188;52.324;8.032;2022-12-29T03:35:48;2.28;;;1.63;;
60344;SDS011;46188;52.324;8.032;2022-12-29T03:38:16;2.65;;;1.35;;
60344;SDS011;46188;52.324;8.032;2022-12-29T03:40:44;1.73;;;1.20;;
60344;SDS011;46188;52.324;8.032;2022-12-29T03:43:13;1.52;;;1.00;;
60344;SDS011;46188;52.324;8.032;2022-12-29T03:45:39;1.90;;;1.60;;
60344;SDS011;46188;52.324;8.032;2022-12-29T03:48:05;1.75;;;1.02;;
60344;SDS011;46188;52.324;8.032;2022-12-29T03:50:31;2.85;;;1.20;;
60344;SDS011;46188;52.324;8.032;2022-12-29T03:52:56;2.33;;;1.10;;
60344;SDS011;46188;52.324;8.032;2022-12-29T03:55:21;3.28;;;1.00;;
60344;SDS011;46188;52.324;8.032;2022-12-29T03:57:47;2.35;;;1.00;;
60344;SDS011;46188;52.324;8.032;2022-12-29T04:00:12;2.72;;;1.20;;
60344;SDS011;46188;52.324;8.032;2022-12-29T04:02:38;1.27;;;0.75;;
60344;SDS011;46188;52.324;8.032;2022-12-29T04:05:04;1.60;;;0.90;;
60344;SDS011;46188;52.324;8.032;2022-12-29T04:07:30;3.80;;;0.98;;
60344;SDS011;46188;52.324;8.032;2022-12-29T04:09:56;1.38;;;0.80;;
60344;SDS011;46188;52.324;8.032;2022-12-29T04:12:21;1.77;;;0.98;;
60344;SDS011;46188;52.324;8.032;2022-12-29T04:14:46;3.28;;;1.08;;
60344;SDS011;46188;52.324;8.032;2022-12-29T04:17:12;3.25;;;1.10;;
60344;SDS011;46188;52.324;8.032;2022-12-29T04:19:37;1.92;;;1.08;;
60344;SDS011;46188;52.324;8.032;2022-12-29T04:22:03;3.15;;;0.98;;
60344;SDS011;46188;52.324;8.032;2022-12-29T04:24:28;1.40;;;0.93;;
60344;SDS011;46188;52.324;8.032;2022-12-29T04:26:54;1.70;;;0.95;;
60344;SDS011;46188;52.324;8.032;2022-12-29T04:29:19;2.85;;;1.35;;
60344;SDS011;46188;52.324;8.032;2022-12-29T04:31:45;2.80;;;1.08;;
60344;SDS011;46188;52.324;8.032;2022-12-29T04:34:10;1.67;;;0.95;;
60344;SDS011;46188;52.324;8.032;2022-12-29T04:36:35;4.03;;;1.13;;
60344;SDS011;46188;52.324;8.032;2022-12-29T04:39:01;2.22;;;1.08;;
60344;SDS011;46188;52.324;8.032;2022-12-29T04:41:26;1.55;;;1.00;;
60344;SDS011;46188;52.324;8.032;2022-12-29T04:43:52;2.38;;;1.00;;
60344;SDS011;46188;52.324;8.032;2022-12-29T04:46:17;1.20;;;0.82;;
60344;SDS011;46188;52.324;8.032;2022-12-29T04:48:43;2.20;;;1.00;;
60344;SDS011;46188;52.324;8.032;2022-12-29T04:51:09;2.15;;;1.00;;
60344;SDS011;46188;52.324;8.032;2022-12-29T04:53:34;2.50;;;1.20;;
60344;SDS011;46188;52.324;8.032;2022-12-29T04:55:59;4.43;;;1.20;;
60344;SDS011;46188;52.324;8.032;2022-12-29T04:58:25;3.58;;;1.20;;
60344;SDS011;46188;52.324;8.032;2022-12-29T05:00:51;3.17;;;1.10;;
60344;SDS011;46188;52.324;8.032;2022-12-29T05:03:17;4.00;;;1.00;;
60344;SDS011;46188;52.324;8.032;2022-12-29T05:05:42;2.70;;;1.10;;
60344;SDS011;46188;52.324;8.032;2022-12-29T05:08:08;2.15;;;1.15;;
60344;SDS011;46188;52.324;8.032;2022-12-29T05:10:33;1.45;;;0.95;;
60344;SDS011;46188;52.324;8.032;2022-12-29T05:12:58;1.55;;;0.90;;
60344;SDS011;46188;52.324;8.032;2022-12-29T05:15:24;1.10;;;0.85;;
60344;SDS011;46188;52.324;8.032;2022-12-29T05:17:50;2.85;;;1.00;;
60344;SDS011;46188;52.324;8.032;2022-12-29T05:20:15;1.58;;;0.93;;
60344;SDS011;46188;52.324;8.032;2022-12-29T05:22:41;1.58;;;0.90;;
60344;SDS011;46188;52.324;8.032;2022-12-29T05:25:07;2.08;;;1.20;;
60344;SDS011;46188;52.324;8.032;2022-12-29T05:27:32;2.50;;;1.00;;
60344;SDS011;46188;52.324;8.032;2022-12-29T05:29:58;1.63;;;1.00;;
60344;SDS011;46188;52.324;8.032;2022-12-29T05:32:23;3.20;;;1.10;;
60344;SDS011;46188;52.324;8.032;2022-12-29T05:34:49;1.25;;;0.80;;
60344;SDS011;46188;52.324;8.032;2022-12-29T05:37:14;3.38;;;1.05;;
60344;SDS011;46188;52.324;8.032;2022-12-29T05:39:40;2.28;;;1.20;;
60344;SDS011;46188;52.324;8.032;2022-12-29T05:42:05;1.70;;;1.00;;
60344;SDS011;46188;52.324;8.032;2022-12-29T05:44:31;3.30;;;1.30;;
60344;SDS011;46188;52.324;8.032;2022-12-29T05:46:56;1.58;;;0.95;;
60344;SDS011;46188;52.324;8.032;2022-12-29T05:49:22;2.72;;;0.85;;
60344;SDS011;46188;52.324;8.032;2022-12-29T05:51:47;1.67;;;0.98;;
60344;SDS011;46188;52.324;8.032;2022-12-29T05:54:12;2.88;;;1.00;;
60344;SDS011;46188;52.324;8.032;2022-12-29T05:56:38;2.47;;;1.33;;
60344;SDS011;46188;52.324;8.032;2022-12-29T05:59:03;2.80;;;1.00;;
60344;SDS011;46188;52.324;8.032;2022-12-29T06:01:29;5.00;;;0.90;;
60344;SDS011;46188;52.324;8.032;2022-12-29T06:03:54;3.25;;;1.60;;
60344;SDS011;46188;52.324;8.032;2022-12-29T06:06:20;2.50;;;0.90;;
60344;SDS011;46188;52.324;8.032;2022-12-29T06:08:45;1.17;;;0.70;;
60344;SDS011;46188;52.324;8.032;2022-12-29T06:11:11;2.17;;;0.70;;
60344;SDS011;46188;52.324;8.032;2022-12-29T06:13:36;1.10;;;0.60;;
60344;SDS011;46188;52.324;8.032;2022-12-29T06:16:02;2.15;;;0.70;;
60344;SDS011;46188;52.324;8.032;2022-12-29T06:18:28;1.20;;;0.70;;
60344;SDS011;46188;52.324;8.032;2022-12-29T06:20:54;1.88;;;0.50;;
60344;SDS011;46188;52.324;8.032;2022-12-29T06:23:19;1.95;;;0.60;;
60344;SDS011;46188;52.324;8.032;2022-12-29T06:25:46;1.00;;;0.50;;
60344;SDS011;46188;52.324;8.032;2022-12-29T06:28:12;2.65;;;0.70;;
60344;SDS011;46188;52.324;8.032;2022-12-29T06:30:38;3.30;;;0.60;;
60344;SDS011;46188;52.324;8.032;2022-12-29T06:33:03;1.17;;;0.55;;
60344;SDS011;46188;52.324;8.032;2022-12-29T06:35:29;2.03;;;0.75;;
60344;SDS011;46188;52.324;8.032;2022-12-29T06:37:54;1.88;;;0.52;;
60344;SDS011;46188;52.324;8.032;2022-12-29T06:40:20;2.10;;;0.60;;
60344;SDS011;46188;52.324;8.032;2022-12-29T06:42:46;2.05;;;0.77;;
60344;SDS011;46188;52.324;8.032;2022-12-29T06:45:12;4.18;;;0.93;;
60344;SDS011;46188;52.324;8.032;2022-12-29T06:47:37;2.08;;;0.50;;
60344;SDS011;46188;52.324;8.032;2022-12-29T06:50:03;3.47;;;0.82;;
60344;SDS011;46188;52.324;8.032;2022-12-29T06:52:28;8.20;;;0.63;;
60344;SDS011;46188;52.324;8.032;2022-12-29T06:54:54;1.92;;;0.85;;
60344;SDS011;46188;52.324;8.032;2022-12-29T06:57:20;2.08;;;0.55;;
60344;SDS011;46188;52.324;8.032;2022-12-29T06:59:46;2.85;;;0.68;;
60344;SDS011;46188;52.324;8.032;2022-12-29T07:02:11;1.70;;;0.68;;
60344;SDS011;46188;52.324;8.032;2022-12-29T07:04:39;4.95;;;0.90;;
60344;SDS011;46188;52.324;8.032;2022-12-29T07:07:04;4.53;;;0.80;;
60344;SDS011;46188;52.324;8.032;2022-12-29T07:09:30;3.78;;;0.55;;
60344;SDS011;46188;52.324;8.032;2022-12-29T07:11:55;1.98;;;0.80;;
60344;SDS011;46188;52.324;8.032;2022-12-29T07:14:20;3.33;;;0.93;;
60344;SDS011;46188;52.324;8.032;2022-12-29T07:16:46;1.85;;;0.85;;
60344;SDS011;46188;52.324;8.032;2022-12-29T07:19:11;3.55;;;1.67;;
60344;SDS011;46188;52.324;8.032;2022-12-29T07:21:37;4.72;;;1.10;;
60344;SDS011;46188;52.324;8.032;2022-12-29T07:24:02;7.82;;;0.95;;
60344;SDS011;46188;52.324;8.032;2022-12-29T07:26:28;3.58;;;1.00;;
60344;SDS011;46188;52.324;8.032;2022-12-29T07:28:53;6.80;;;0.93;;
60344;SDS011;46188;52.324;8.032;2022-12-29T07:31:21;2.05;;;0.93;;
60344;SDS011;46188;52.324;8.032;2022-12-29T07:33:47;2.88;;;0.80;;
60344;SDS011;46188;52.324;8.032;2022-12-29T07:36:13;6.55;;;1.38;;
60344;SDS011;46188;52.324;8.032;2022-12-29T07:38:41;4.43;;;1.10;;
60344;SDS011;46188;52.324;8.032;2022-12-29T07:41:06;3.53;;;1.00;;
60344;SDS011;46188;52.324;8.032;2022-12-29T07:43:32;5.30;;;1.00;;
60344;SDS011;46188;52.324;8.032;2022-12-29T07:45:58;4.63;;;0.88;;
60344;SDS011;46188;52.324;8.032;2022-12-29T07:48:23;2.92;;;0.80;;
60344;SDS011;46188;52.324;8.032;2022-12-29T07:50:49;3.90;;;1.10;;
60344;SDS011;46188;52.324;8.032;2022-12-29T07:53:15;5.80;;;1.13;;
60344;SDS011;46188;52.324;8.032;2022-12-29T07:55:40;4.22;;;0.85;;
60344;SDS011;46188;52.324;8.032;2022-12-29T07:58:06;5.18;;;2.28;;
60344;SDS011;46188;52.324;8.032;2022-12-29T08:00:31;7.00;;;2.58;;
60344;SDS011;46188;52.324;8.032;2022-12-29T08:02:57;5.65;;;1.10;;
60344;SDS011;46188;52.324;8.032;2022-12-29T08:05:22;4.53;;;1.20;;
60344;SDS011;46188;52.324;8.032;2022-12-29T08:07:47;6.05;;;1.00;;
60344;SDS011;46188;52.324;8.032;2022-12-29T08:10:13;4.40;;;0.80;;
60344;SDS011;46188;52.324;8.032;2022-12-29T08:12:40;3.08;;;1.00;;
60344;SDS011;46188;52.324;8.032;2022-12-29T08:15:07;8.93;;;3.17;;
60344;SDS011;46188;52.324;8.032;2022-12-29T08:17:34;2.60;;;0.93;;
60344;SDS011;46188;52.324;8.032;2022-12-29T08:20:00;3.65;;;1.27;;
60344;SDS011;46188;52.324;8.032;2022-12-29T08:22:25;4.25;;;1.00;;
60344;SDS011;46188;52.324;8.032;2022-12-29T08:24:51;4.72;;;1.10;;
60344;SDS011;46188;52.324;8.032;2022-12-29T08:27:16;2.13;;;0.90;;
60344;SDS011;46188;52.324;8.032;2022-12-29T08:29:42;4.25;;;1.75;;
60344;SDS011;46188;52.324;8.032;2022-12-29T08:32:08;6.72;;;1.80;;
60344;SDS011;46188;52.324;8.032;2022-12-29T08:34:33;7.43;;;1.15;;
60344;SDS011;46188;52.324;8.032;2022-12-29T08:36:59;5.18;;;1.17;;
60344;SDS011;46188;52.324;8.032;2022-12-29T08:39:24;4.10;;;1.00;;
60344;SDS011;46188;52.324;8.032;2022-12-29T08:41:50;2.13;;;0.80;;
60344;SDS011;46188;52.324;8.032;2022-12-29T08:44:15;6.95;;;1.15;;
60344;SDS011;46188;52.324;8.032;2022-12-29T08:46:40;2.42;;;0.90;;
60344;SDS011;46188;52.324;8.032;2022-12-29T08:49:06;3.85;;;0.80;;
60344;SDS011;46188;52.324;8.032;2022-12-29T08:51:31;4.60;;;1.10;;
60344;SDS011;46188;52.324;8.032;2022-12-29T08:53:57;5.47;;;1.20;;
60344;SDS011;46188;52.324;8.032;2022-12-29T08:56:22;5.13;;;1.00;;
60344;SDS011;46188;52.324;8.032;2022-12-29T08:58:49;2.70;;;1.52;;
60344;SDS011;46188;52.324;8.032;2022-12-29T09:01:15;4.07;;;0.80;;
60344;SDS011;46188;52.324;8.032;2022-12-29T09:03:40;4.13;;;1.02;;
60344;SDS011;46188;52.324;8.032;2022-12-29T09:06:06;3.78;;;1.17;;
60344;SDS011;46188;52.324;8.032;2022-12-29T09:08:31;3.75;;;0.90;;
60344;SDS011;46188;52.324;8.032;2022-12-29T09:11:05;3.55;;;1.02;;
60344;SDS011;46188;52.324;8.032;2022-12-29T09:13:32;3.22;;;0.90;;
60344;SDS011;46188;52.324;8.032;2022-12-29T09:15:58;3.53;;;1.20;;
60344;SDS011;46188;52.324;8.032;2022-12-29T09:18:24;4.60;;;1.00;;
60344;SDS011;46188;52.324;8.032;2022-12-29T09:20:55;3.97;;;1.10;;
60344;SDS011;46188;52.324;8.032;2022-12-29T09:23:21;2.63;;;0.88;;
60344;SDS011;46188;52.324;8.032;2022-12-29T09:25:47;3.10;;;0.95;;
60344;SDS011;46188;52.324;8.032;2022-12-29T09:28:12;2.63;;;0.90;;
60344;SDS011;46188;52.324;8.032;2022-12-29T09:30:37;5.53;;;1.13;;
60344;SDS011;46188;52.324;8.032;2022-12-29T09:33:03;2.55;;;1.13;;
60344;SDS011;46188;52.324;8.032;2022-12-29T09:35:28;5.10;;;1.33;;
60344;SDS011;46188;52.324;8.032;2022-12-29T09:37:54;5.03;;;1.00;;
60344;SDS011;46188;52.324;8.032;2022-12-29T09:40:29;5.25;;;1.30;;
60344;SDS011;46188;52.324;8.032;2022-12-29T09:45:40;3.15;;;1.15;;
60344;SDS011;46188;52.324;8.032;2022-12-29T09:48:17;3.05;;;1.15;;
60344;SDS011;46188;52.324;8.032;2022-12-29T09:50:47;4.65;;;1.05;;
60344;SDS011;46188;52.324;8.032;2022-12-29T09:53:39;5.40;;;1.23;;
60344;SDS011;46188;52.324;8.032;2022-12-29T09:56:10;7.93;;;1.02;;
60344;SDS011;46188;52.324;8.032;2022-12-29T09:58:41;3.70;;;0.95;;
60344;SDS011;46188;52.324;8.032;2022-12-29T10:04:03;4.88;;;1.20;;
60344;SDS011;46188;52.324;8.032;2022-12-29T10:26:03;8.68;;;1.35;;
60344;SDS011;46188;52.324;8.032;2022-12-29T10:31:13;5.32;;;1.10;;
60344;SDS011;46188;52.324;8.032;2022-12-29T10:33:45;3.80;;;1.23;;
60344;SDS011;46188;52.324;8.032;2022-12-29T10:36:15;4.57;;;1.00;;
60344;SDS011;46188;52.324;8.032;2022-12-29T10:43:51;5.70;;;1.52;;
60344;SDS011;46188;52.324;8.032;2022-12-29T10:46:23;7.53;;;1.15;;
60344;SDS011;46188;52.324;8.032;2022-12-29T10:48:53;3.50;;;1.05;;
60344;SDS011;46188;52.324;8.032;2022-12-29T10:54:12;2.97;;;0.88;;
60344;SDS011;46188;52.324;8.032;2022-12-29T10:56:45;5.43;;;1.92;;
60344;SDS011;46188;52.324;8.032;2022-12-29T11:01:56;7.60;;;1.25;;
60344;SDS011;46188;52.324;8.032;2022-12-29T11:07:27;3.25;;;1.20;;
60344;SDS011;46188;52.324;8.032;2022-12-29T11:09:55;4.03;;;1.10;;
60344;SDS011;46188;52.324;8.032;2022-12-29T11:12:40;7.50;;;0.90;;
60344;SDS011;46188;52.324;8.032;2022-12-29T11:17:42;5.20;;;1.00;;
60344;SDS011;46188;52.324;8.032;2022-12-29T11:22:52;5.85;;;1.67;;
60344;SDS011;46188;52.324;8.032;2022-12-29T11:25:18;7.40;;;1.50;;
60344;SDS011;46188;52.324;8.032;2022-12-29T11:27:54;4.28;;;1.17;;
60344;SDS011;46188;52.324;8.032;2022-12-29T11:30:26;5.80;;;1.23;;
60344;SDS011;46188;52.324;8.032;2022-12-29T11:32:56;6.10;;;1.50;;
60344;SDS011;46188;52.324;8.032;2022-12-29T11:35:36;9.38;;;1.73;;
60344;SDS011;46188;52.324;8.032;2022-12-29T11:38:04;3.38;;;1.30;;
60344;SDS011;46188;52.324;8.032;2022-12-29T11:40:30;8.77;;;1.45;;
60344;SDS011;46188;52.324;8.032;2022-12-29T11:43:02;4.65;;;1.27;;
60344;SDS011;46188;52.324;8.032;2022-12-29T11:45:33;6.68;;;1.35;;
60344;SDS011;46188;52.324;8.032;2022-12-29T11:48:11;6.38;;;1.40;;
60344;SDS011;46188;52.324;8.032;2022-12-29T11:50:48;4.22;;;1.13;;
60344;SDS011;46188;52.324;8.032;2022-12-29T11:53:25;7.95;;;1.55;;
60344;SDS011;46188;52.324;8.032;2022-12-29T11:55:57;3.67;;;1.30;;
60344;SDS011;46188;52.324;8.032;2022-12-29T11:58:32;2.15;;;0.90;;
60344;SDS011;46188;52.324;8.032;2022-12-29T12:04:28;3.00;;;1.10;;
60344;SDS011;46188;52.324;8.032;2022-12-29T12:06:41;5.20;;;3.03;;
60344;SDS011;46188;52.324;8.032;2022-12-29T12:09:25;4.55;;;1.42;;
60344;SDS011;46188;52.324;8.032;2022-12-29T12:11:56;2.97;;;1.20;;
60344;SDS011;46188;52.324;8.032;2022-12-29T12:14:32;7.75;;;1.35;;
60344;SDS011;46188;52.324;8.032;2022-12-29T12:19:46;3.85;;;1.30;;
60344;SDS011;46188;52.324;8.032;2022-12-29T12:25:18;6.88;;;1.27;;
60344;SDS011;46188;52.324;8.032;2022-12-29T12:33:05;5.03;;;0.95;;
60344;SDS011;46188;52.324;8.032;2022-12-29T12:35:43;2.67;;;1.27;;
60344;SDS011;46188;52.324;8.032;2022-12-29T12:43:44;4.00;;;1.15;;
60344;SDS011;46188;52.324;8.032;2022-12-29T13:00:11;4.85;;;1.33;;
60344;SDS011;46188;52.324;8.032;2022-12-29T13:08:28;7.83;;;1.33;;
60344;SDS011;46188;52.324;8.032;2022-12-29T13:11:24;4.05;;;1.75;;
60344;SDS011;46188;52.324;8.032;2022-12-29T13:16:56;4.25;;;1.25;;
60344;SDS011;46188;52.324;8.032;2022-12-29T13:22:12;5.35;;;1.33;;
60344;SDS011;46188;52.324;8.032;2022-12-29T13:24:53;4.80;;;1.33;;
60344;SDS011;46188;52.324;8.032;2022-12-29T13:27:50;5.10;;;1.33;;
60344;SDS011;46188;52.324;8.032;2022-12-29T13:33:19;5.80;;;2.22;;
60344;SDS011;46188;52.324;8.032;2022-12-29T13:36:00;7.57;;;2.05;;
60344;SDS011;46188;52.324;8.032;2022-12-29T13:40:56;8.00;;;1.30;;
60344;SDS011;46188;52.324;8.032;2022-12-29T13:43:35;6.10;;;1.50;;
60344;SDS011;46188;52.324;8.032;2022-12-29T13:46:15;5.38;;;1.45;;
60344;SDS011;46188;52.324;8.032;2022-12-29T13:48:48;3.60;;;1.40;;
60344;SDS011;46188;52.324;8.032;2022-12-29T13:51:18;4.43;;;1.27;;
60344;SDS011;46188;52.324;8.032;2022-12-29T13:54:09;4.90;;;1.20;;
60344;SDS011;46188;52.324;8.032;2022-12-29T13:57:10;4.95;;;1.23;;
60344;SDS011;46188;52.324;8.032;2022-12-29T13:59:50;4.45;;;1.40;;
60344;SDS011;46188;52.324;8.032;2022-12-29T14:04:59;5.13;;;1.33;;
60344;SDS011;46188;52.324;8.032;2022-12-29T14:07:26;6.43;;;2.03;;
60344;SDS011;46188;52.324;8.032;2022-12-29T14:09:54;5.80;;;1.40;;
60344;SDS011;46188;52.324;8.032;2022-12-29T14:14:50;6.13;;;1.67;;
60344;SDS011;46188;52.324;8.032;2022-12-29T14:17:18;6.90;;;1.42;;
60344;SDS011;46188;52.324;8.032;2022-12-29T14:19:45;4.38;;;2.33;;
60344;SDS011;46188;52.324;8.032;2022-12-29T14:22:22;3.78;;;1.48;;
60344;SDS011;46188;52.324;8.032;2022-12-29T14:24:49;6.80;;;1.25;;
60344;SDS011;46188;52.324;8.032;2022-12-29T14:34:54;4.30;;;1.63;;
60344;SDS011;46188;52.324;8.032;2022-12-29T14:40:17;7.97;;;1.60;;
60344;SDS011;46188;52.324;8.032;2022-12-29T14:42:47;8.75;;;1.67;;
60344;SDS011;46188;52.324;8.032;2022-12-29T14:47:43;4.93;;;1.58;;
60344;SDS011;46188;52.324;8.032;2022-12-29T14:57:40;6.47;;;1.83;;
60344;SDS011;46188;52.324;8.032;2022-12-29T15:02:42;7.80;;;2.45;;
60344;SDS011;46188;52.324;8.032;2022-12-29T15:05:35;13.07;;;3.53;;
60344;SDS011;46188;52.324;8.032;2022-12-29T15:08:17;7.65;;;2.05;;
60344;SDS011;46188;52.324;8.032;2022-12-29T15:13:39;4.20;;;1.73;;
60344;SDS011;46188;52.324;8.032;2022-12-29T15:18:56;9.48;;;2.03;;
60344;SDS011;46188;52.324;8.032;2022-12-29T15:21:26;5.07;;;1.60;;
60344;SDS011;46188;52.324;8.032;2022-12-29T15:23:54;6.22;;;1.90;;
60344;SDS011;46188;52.324;8.032;2022-12-29T15:26:20;9.77;;;1.60;;
60344;SDS011;46188;52.324;8.032;2022-12-29T15:28:48;6.82;;;1.50;;
60344;SDS011;46188;52.324;8.032;2022-12-29T15:33:43;7.90;;;2.05;;
60344;SDS011;46188;52.324;8.032;2022-12-29T15:36:13;4.45;;;1.95;;
60344;SDS011;46188;52.324;8.032;2022-12-29T15:38:46;7.55;;;3.38;;
60344;SDS011;46188;52.324;8.032;2022-12-29T15:41:31;5.00;;;1.55;;
60344;SDS011;46188;52.324;8.032;2022-12-29T15:44:25;6.90;;;1.65;;
60344;SDS011;46188;52.324;8.032;2022-12-29T15:46:54;7.38;;;1.55;;
60344;SDS011;46188;52.324;8.032;2022-12-29T15:49:20;11.27;;;1.80;;
60344;SDS011;46188;52.324;8.032;2022-12-29T15:51:46;3.40;;;1.40;;
60344;SDS011;46188;52.324;8.032;2022-12-29T15:54:18;10.35;;;1.90;;
60344;SDS011;46188;52.324;8.032;2022-12-29T15:56:47;9.38;;;2.08;;
60344;SDS011;46188;52.324;8.032;2022-12-29T15:59:26;6.30;;;1.40;;
60344;SDS011;46188;52.324;8.032;2022-12-29T16:01:56;7.38;;;1.58;;
60344;SDS011;46188;52.324;8.032;2022-12-29T16:04:27;6.85;;;1.77;;
60344;SDS011;46188;52.324;8.032;2022-12-29T16:07:02;7.57;;;1.73;;
60344;SDS011;46188;52.324;8.032;2022-12-29T16:09:35;10.23;;;1.60;;
60344;SDS011;46188;52.324;8.032;2022-12-29T16:15:06;3.83;;;1.15;;
60344;SDS011;46188;52.324;8.032;2022-12-29T16:17:43;4.47;;;1.35;;
60344;SDS011;46188;52.324;8.032;2022-12-29T16:22:48;4.07;;;1.15;;
60344;SDS011;46188;52.324;8.032;2022-12-29T16:25:18;5.07;;;1.20;;
60344;SDS011;46188;52.324;8.032;2022-12-29T16:27:49;5.57;;;1.23;;
60344;SDS011;46188;52.324;8.032;2022-12-29T16:32:47;2.50;;;1.08;;
60344;SDS011;46188;52.324;8.032;2022-12-29T16:40:56;5.55;;;1.45;;
60344;SDS011;46188;52.324;8.032;2022-12-29T16:43:25;4.07;;;1.10;;
60344;SDS011;46188;52.324;8.032;2022-12-29T16:48:19;2.80;;;1.20;;
60344;SDS011;46188;52.324;8.032;2022-12-29T16:50:47;5.10;;;0.93;;
60344;SDS011;46188;52.324;8.032;2022-12-29T16:55:49;3.10;;;1.30;;
60344;SDS011;46188;52.324;8.032;2022-12-29T16:58:18;3.83;;;1.00;;
60344;SDS011;46188;52.324;8.032;2022-12-29T17:00:46;4.18;;;1.10;;
60344;SDS011;46188;52.324;8.032;2022-12-29T17:03:12;3.05;;;1.15;;
60344;SDS011;46188;52.324;8.032;2022-12-29T17:05:38;3.72;;;1.27;;
60344;SDS011;46188;52.324;8.032;2022-12-29T17:08:13;5.40;;;1.30;;
60344;SDS011;46188;52.324;8.032;2022-12-29T17:10:48;7.38;;;1.35;;
60344;SDS011;46188;52.324;8.032;2022-12-29T17:13:37;5.22;;;1.33;;
60344;SDS011;46188;52.324;8.032;2022-12-29T17:16:04;6.95;;;1.42;;
60344;SDS011;46188;52.324;8.032;2022-12-29T17:18:32;6.30;;;1.30;;
60344;SDS011;46188;52.324;8.032;2022-12-29T17:20:58;3.85;;;1.30;;
60344;SDS011;46188;52.324;8.032;2022-12-29T17:23:23;6.80;;;1.42;;
60344;SDS011;46188;52.324;8.032;2022-12-29T17:25:49;4.15;;;1.33;;
60344;SDS011;46188;52.324;8.032;2022-12-29T17:28:21;6.88;;;1.33;;
60344;SDS011;46188;52.324;8.032;2022-12-29T17:30:51;5.50;;;1.20;;
60344;SDS011;46188;52.324;8.032;2022-12-29T17:33:19;11.30;;;1.80;;
60344;SDS011;46188;52.324;8.032;2022-12-29T17:35:45;6.20;;;1.35;;
60344;SDS011;46188;52.324;8.032;2022-12-29T17:38:18;5.35;;;1.33;;
60344;SDS011;46188;52.324;8.032;2022-12-29T17:40:47;3.10;;;1.10;;
60344;SDS011;46188;52.324;8.032;2022-12-29T17:43:14;3.40;;;1.30;;
60344;SDS011;46188;52.324;8.032;2022-12-29T17:45:41;4.35;;;1.50;;
60344;SDS011;46188;52.324;8.032;2022-12-29T17:48:11;7.43;;;2.17;;
60344;SDS011;46188;52.324;8.032;2022-12-29T17:50:40;6.35;;;2.85;;
60344;SDS011;46188;52.324;8.032;2022-12-29T17:53:09;5.80;;;1.60;;
60344;SDS011;46188;52.324;8.032;2022-12-29T17:55:37;3.50;;;1.05;;
60344;SDS011;46188;52.324;8.032;2022-12-29T18:00:46;5.65;;;2.15;;
60344;SDS011;46188;52.324;8.032;2022-12-29T18:03:14;6.20;;;3.10;;
60344;SDS011;46188;52.324;8.032;2022-12-29T18:05:41;5.47;;;1.20;;